Pagina principale
METAR-TAF:

METAR-TAF

Aeroporti :

Aeroporto di Grosseto

Grosseto, Italia

latitudine: 42-45N, longitudine: 011-04E, altezza: 5 m

Osservazione

Il bollettino è stato emesso 1 ora e 10 minuti fa, alle 00:55 UTC
Vento 8 kt da sud-est
Temperature 16°C
Umidità 94%
Pressione 1009 hPa
Visibilità 10 km o più
Nubi sparse ad un'altezza di 6000 ft

METAR: LIRS 160055Z 14008KT 9999 SCT060 16/15 Q1009 RMK SCT VIS MIN 9999 WIND THR03 14006KT WIND THR21 14006KT BLU

Ora: 04:05 (02:05 UTC)

Previsione

Il bollettino è stato emesso 9 ore e 5 minuti fa, alle 17:00 UTC
Previsione valida dal 15 alle 18 UTC al 16 alle 03 UTC
Vento 6 kt da sud/sud-est
Visibilità 10 km o più
nessuna nube inferiore a 1500 m e nessun cumulonembo

TAF: LIRS 151700Z 1518/1603 16006KT CAVOK

Osservazioni e previsioni meteorologiche di più di 4000 aeroporti (messaggi METAR e TAF).

Le stazioni disponibili sono rappresentate dai dischi gialli e rossi sulla carta.

Puntare il mouse per vedere il nome della stazione.

Clicca sopra per visualizzare le osservazioni e previsioni meteorologiche.

Per cambiare la mappa : fare clic sui pulsanti verdi con una croce nera per ingrandire, il pulsante verde con un trattino per diminuire, o sulla freccia verde per le mappe adiacenti.


METAR-TAF: